sensor_id;sensor_type;location;lat;lon;timestamp;pressure;altitude;pressure_sealevel;temperature;humidity
9538;BME280;4807;48.024;11.726;2022-07-29T00:01:51;94946.44;;;19.06;87.42
9538;BME280;4807;48.024;11.726;2022-07-29T00:05:00;94948.75;;;19.07;86.20
9538;BME280;4807;48.024;11.726;2022-07-29T00:08:10;94939.53;;;19.12;85.52
9538;BME280;4807;48.024;11.726;2022-07-29T00:11:19;94934.94;;;19.09;86.12
9538;BME280;4807;48.024;11.726;2022-07-29T00:14:28;94934.16;;;19.19;85.40
9538;BME280;4807;48.024;11.726;2022-07-29T00:17:36;94926.44;;;19.10;85.76
9538;BME280;4807;48.024;11.726;2022-07-29T00:20:45;94935.72;;;19.16;86.04
9538;BME280;4807;48.024;11.726;2022-07-29T00:23:54;94933.38;;;19.04;86.17
9538;BME280;4807;48.024;11.726;2022-07-29T00:27:03;94928.38;;;19.10;86.25
9538;BME280;4807;48.024;11.726;2022-07-29T00:30:12;94925.31;;;19.08;86.15
9538;BME280;4807;48.024;11.726;2022-07-29T00:33:20;94915.28;;;19.05;86.19
9538;BME280;4807;48.024;11.726;2022-07-29T00:36:30;94921.81;;;19.04;86.51
9538;BME280;4807;48.024;11.726;2022-07-29T00:39:39;94916.84;;;18.99;87.04
9538;BME280;4807;48.024;11.726;2022-07-29T00:42:50;94910.28;;;18.96;87.47
9538;BME280;4807;48.024;11.726;2022-07-29T00:45:59;94909.13;;;18.97;88.03
9538;BME280;4807;48.024;11.726;2022-07-29T00:49:09;94899.94;;;19.05;88.12
9538;BME280;4807;48.024;11.726;2022-07-29T00:52:18;94898.75;;;18.95;88.84
9538;BME280;4807;48.024;11.726;2022-07-29T00:55:29;94896.81;;;18.89;90.33
9538;BME280;4807;48.024;11.726;2022-07-29T00:58:39;94891.88;;;19.02;89.93
9538;BME280;4807;48.024;11.726;2022-07-29T01:01:48;94895.69;;;18.93;90.06
9538;BME280;4807;48.024;11.726;2022-07-29T01:04:56;94886.44;;;18.94;89.89
9538;BME280;4807;48.024;11.726;2022-07-29T01:08:06;94882.59;;;18.95;89.77
9538;BME280;4807;48.024;11.726;2022-07-29T01:11:17;94874.94;;;18.98;89.38
9538;BME280;4807;48.024;11.726;2022-07-29T01:14:27;94881.06;;;18.94;89.29
9538;BME280;4807;48.024;11.726;2022-07-29T01:17:43;94882.22;;;18.86;89.49
9538;BME280;4807;48.024;11.726;2022-07-29T01:21:21;94875.69;;;18.87;89.69
9538;BME280;4807;48.024;11.726;2022-07-29T01:25:01;94864.13;;;18.73;91.13
9538;BME280;4807;48.024;11.726;2022-07-29T01:32:20;94863.38;;;18.69;91.40
9538;BME280;4807;48.024;11.726;2022-07-29T01:35:39;94874.88;;;18.62;92.09
9538;BME280;4807;48.024;11.726;2022-07-29T01:38:58;94873.34;;;18.68;92.60
9538;BME280;4807;48.024;11.726;2022-07-29T01:42:20;94872.97;;;18.77;91.34
9538;BME280;4807;48.024;11.726;2022-07-29T01:45:40;94858.75;;;18.80;92.52
9538;BME280;4807;48.024;11.726;2022-07-29T01:48:57;94860.63;;;18.58;92.69
9538;BME280;4807;48.024;11.726;2022-07-29T01:52:16;94849.53;;;18.67;92.48
9538;BME280;4807;48.024;11.726;2022-07-29T01:55:31;94845.66;;;18.57;92.73
9538;BME280;4807;48.024;11.726;2022-07-29T01:58:43;94859.81;;;18.50;92.81
9538;BME280;4807;48.024;11.726;2022-07-29T02:01:55;94855.25;;;18.58;92.87
9538;BME280;4807;48.024;11.726;2022-07-29T02:05:11;94856.75;;;18.48;93.36
9538;BME280;4807;48.024;11.726;2022-07-29T02:08:21;94853.28;;;18.44;93.33
9538;BME280;4807;48.024;11.726;2022-07-29T02:11:33;94854.81;;;18.45;92.75
9538;BME280;4807;48.024;11.726;2022-07-29T02:14:47;94842.59;;;18.59;92.33
9538;BME280;4807;48.024;11.726;2022-07-29T02:18:01;94836.09;;;18.63;91.79
9538;BME280;4807;48.024;11.726;2022-07-29T02:21:12;94831.47;;;18.64;91.94
9538;BME280;4807;48.024;11.726;2022-07-29T02:24:24;94829.47;;;18.43;94.36
9538;BME280;4807;48.024;11.726;2022-07-29T02:27:34;94830.66;;;18.49;94.72
9538;BME280;4807;48.024;11.726;2022-07-29T02:30:44;94831.81;;;18.55;93.90
9538;BME280;4807;48.024;11.726;2022-07-29T02:33:57;94829.09;;;18.51;94.08
9538;BME280;4807;48.024;11.726;2022-07-29T02:37:10;94835.22;;;18.38;94.26
9538;BME280;4807;48.024;11.726;2022-07-29T02:40:19;94823.31;;;18.32;95.24
9538;BME280;4807;48.024;11.726;2022-07-29T02:43:30;94823.69;;;18.30;94.91
9538;BME280;4807;48.024;11.726;2022-07-29T02:46:46;94819.44;;;18.18;96.63
9538;BME280;4807;48.024;11.726;2022-07-29T02:50:02;94807.53;;;18.23;96.51
9538;BME280;4807;48.024;11.726;2022-07-29T02:53:19;94808.69;;;18.22;97.44
9538;BME280;4807;48.024;11.726;2022-07-29T02:56:32;94808.69;;;18.22;97.21
9538;BME280;4807;48.024;11.726;2022-07-29T02:59:45;94812.50;;;18.17;97.76
9538;BME280;4807;48.024;11.726;2022-07-29T03:02:59;94805.19;;;18.14;97.25
9538;BME280;4807;48.024;11.726;2022-07-29T03:06:13;94810.16;;;18.05;97.56
9538;BME280;4807;48.024;11.726;2022-07-29T03:09:45;94808.19;;;17.92;97.65
9538;BME280;4807;48.024;11.726;2022-07-29T03:12:54;94801.25;;;17.87;98.89
9538;BME280;4807;48.024;11.726;2022-07-29T03:16:05;94806.25;;;17.85;100.00
9538;BME280;4807;48.024;11.726;2022-07-29T03:19:14;94803.81;;;17.62;100.00
9538;BME280;4807;48.024;11.726;2022-07-29T03:22:24;94805.28;;;17.53;100.00
9538;BME280;4807;48.024;11.726;2022-07-29T03:25:35;94799.81;;;17.35;100.00
9538;BME280;4807;48.024;11.726;2022-07-29T03:28:44;94812.00;;;17.25;100.00
9538;BME280;4807;48.024;11.726;2022-07-29T03:31:53;94808.38;;;17.00;100.00
9538;BME280;4807;48.024;11.726;2022-07-29T03:35:02;94819.56;;;17.09;100.00
9538;BME280;4807;48.024;11.726;2022-07-29T03:38:11;94825.00;;;17.20;100.00
9538;BME280;4807;48.024;11.726;2022-07-29T03:41:23;94824.88;;;17.02;100.00
9538;BME280;4807;48.024;11.726;2022-07-29T03:44:33;94824.34;;;16.86;100.00
9538;BME280;4807;48.024;11.726;2022-07-29T03:47:55;94823.22;;;16.87;100.00
9538;BME280;4807;48.024;11.726;2022-07-29T03:51:07;94818.88;;;16.72;100.00
9538;BME280;4807;48.024;11.726;2022-07-29T03:54:15;94815.59;;;16.92;100.00
9538;BME280;4807;48.024;11.726;2022-07-29T03:57:28;94818.97;;;16.82;100.00
9538;BME280;4807;48.024;11.726;2022-07-29T04:00:39;94818.16;;;16.78;100.00
9538;BME280;4807;48.024;11.726;2022-07-29T04:03:48;94816.31;;;16.86;100.00
9538;BME280;4807;48.024;11.726;2022-07-29T04:06:57;94815.88;;;16.80;100.00
9538;BME280;4807;48.024;11.726;2022-07-29T04:10:07;94811.25;;;16.77;100.00
9538;BME280;4807;48.024;11.726;2022-07-29T04:13:17;94814.28;;;16.72;100.00
9538;BME280;4807;48.024;11.726;2022-07-29T04:16:26;94817.31;;;16.71;100.00
9538;BME280;4807;48.024;11.726;2022-07-29T04:19:34;94807.41;;;16.75;100.00
9538;BME280;4807;48.024;11.726;2022-07-29T04:22:43;94815.47;;;16.78;100.00
9538;BME280;4807;48.024;11.726;2022-07-29T04:25:51;94817.78;;;16.80;100.00
9538;BME280;4807;48.024;11.726;2022-07-29T04:29:01;94820.22;;;16.95;100.00
9538;BME280;4807;48.024;11.726;2022-07-29T04:32:09;94813.72;;;17.00;100.00
9538;BME280;4807;48.024;11.726;2022-07-29T04:35:19;94819.09;;;17.00;100.00
9538;BME280;4807;48.024;11.726;2022-07-29T04:38:27;94821.88;;;17.11;100.00
9538;BME280;4807;48.024;11.726;2022-07-29T04:41:35;94822.69;;;17.18;100.00
9538;BME280;4807;48.024;11.726;2022-07-29T04:44:45;94824.69;;;17.28;100.00
9538;BME280;4807;48.024;11.726;2022-07-29T04:48:07;94830.13;;;17.39;100.00
9538;BME280;4807;48.024;11.726;2022-07-29T04:51:16;94838.63;;;17.52;100.00
9538;BME280;4807;48.024;11.726;2022-07-29T04:54:24;94838.75;;;17.69;100.00
9538;BME280;4807;48.024;11.726;2022-07-29T04:57:33;94842.69;;;17.90;100.00
9538;BME280;4807;48.024;11.726;2022-07-29T05:00:43;94847.00;;;18.05;100.00
9538;BME280;4807;48.024;11.726;2022-07-29T05:03:51;94851.66;;;18.15;100.00
9538;BME280;4807;48.024;11.726;2022-07-29T05:07:06;94850.94;;;18.25;100.00
9538;BME280;4807;48.024;11.726;2022-07-29T05:10:14;94862.50;;;18.47;100.00
9538;BME280;4807;48.024;11.726;2022-07-29T05:13:23;94857.25;;;18.86;97.78
9538;BME280;4807;48.024;11.726;2022-07-29T05:16:32;94863.03;;;19.16;94.42
9538;BME280;4807;48.024;11.726;2022-07-29T05:19:41;94867.28;;;19.31;93.16
9538;BME280;4807;48.024;11.726;2022-07-29T05:22:49;94872.25;;;19.29;92.71
9538;BME280;4807;48.024;11.726;2022-07-29T05:25:58;94868.81;;;19.29;92.70
9538;BME280;4807;48.024;11.726;2022-07-29T05:29:06;94869.94;;;18.96;92.92
9538;BME280;4807;48.024;11.726;2022-07-29T05:32:36;94871.06;;;18.84;95.70
9538;BME280;4807;48.024;11.726;2022-07-29T05:35:45;94880.28;;;18.83;95.04
9538;BME280;4807;48.024;11.726;2022-07-29T05:38:53;94884.13;;;18.82;95.32
9538;BME280;4807;48.024;11.726;2022-07-29T05:42:02;94882.22;;;18.83;95.84
9538;BME280;4807;48.024;11.726;2022-07-29T05:45:11;94883.38;;;18.89;95.07
9538;BME280;4807;48.024;11.726;2022-07-29T05:48:21;94889.91;;;19.02;93.18
9538;BME280;4807;48.024;11.726;2022-07-29T05:51:29;94891.88;;;19.19;93.05
9538;BME280;4807;48.024;11.726;2022-07-29T05:54:37;94880.31;;;19.26;91.84
9538;BME280;4807;48.024;11.726;2022-07-29T05:57:46;94890.31;;;19.32;92.60
9538;BME280;4807;48.024;11.726;2022-07-29T06:00:54;94891.50;;;19.46;92.88
9538;BME280;4807;48.024;11.726;2022-07-29T06:04:07;94893.41;;;19.63;91.22
9538;BME280;4807;48.024;11.726;2022-07-29T06:07:16;94898.75;;;19.98;88.05
9538;BME280;4807;48.024;11.726;2022-07-29T06:10:24;94899.22;;;20.77;84.15
9538;BME280;4807;48.024;11.726;2022-07-29T06:13:33;94897.69;;;21.42;82.11
9538;BME280;4807;48.024;11.726;2022-07-29T06:16:42;94899.34;;;22.78;75.34
9538;BME280;4807;48.024;11.726;2022-07-29T06:19:53;94902.59;;;24.40;67.04
9538;BME280;4807;48.024;11.726;2022-07-29T06:23:01;94896.25;;;25.71;63.13
9538;BME280;4807;48.024;11.726;2022-07-29T06:26:11;94893.56;;;26.57;58.60
9538;BME280;4807;48.024;11.726;2022-07-29T06:29:20;94894.88;;;28.05;56.38
9538;BME280;4807;48.024;11.726;2022-07-29T06:32:28;94893.84;;;28.68;55.99
9538;BME280;4807;48.024;11.726;2022-07-29T06:35:39;94901.44;;;29.25;53.70
9538;BME280;4807;48.024;11.726;2022-07-29T06:39:01;94895.56;;;29.76;52.50
9538;BME280;4807;48.024;11.726;2022-07-29T06:42:09;94894.50;;;29.83;51.79
9538;BME280;4807;48.024;11.726;2022-07-29T06:45:18;94896.69;;;29.48;51.91
9538;BME280;4807;48.024;11.726;2022-07-29T06:48:27;94903.75;;;28.74;53.03
9538;BME280;4807;48.024;11.726;2022-07-29T06:51:38;94896.44;;;29.24;52.62
9538;BME280;4807;48.024;11.726;2022-07-29T06:54:46;94901.97;;;28.37;53.80
9538;BME280;4807;48.024;11.726;2022-07-29T06:57:54;94900.69;;;28.72;55.40
9538;BME280;4807;48.024;11.726;2022-07-29T07:01:04;94897.28;;;29.92;52.51
9538;BME280;4807;48.024;11.726;2022-07-29T07:04:13;94896.25;;;29.49;53.05
9538;BME280;4807;48.024;11.726;2022-07-29T07:07:24;94896.56;;;30.28;51.89
9538;BME280;4807;48.024;11.726;2022-07-29T07:10:33;94913.25;;;31.36;49.45
9538;BME280;4807;48.024;11.726;2022-07-29T07:13:41;94908.63;;;31.18;48.85
9538;BME280;4807;48.024;11.726;2022-07-29T07:16:50;94904.38;;;31.08;49.41
9538;BME280;4807;48.024;11.726;2022-07-29T07:20:00;94904.97;;;31.54;49.63
9538;BME280;4807;48.024;11.726;2022-07-29T07:23:11;94902.03;;;30.37;49.28
9538;BME280;4807;48.024;11.726;2022-07-29T07:26:19;94906.28;;;30.11;53.16
9538;BME280;4807;48.024;11.726;2022-07-29T07:29:27;94908.72;;;30.54;50.91
9538;BME280;4807;48.024;11.726;2022-07-29T07:32:36;94901.09;;;30.40;50.42
9538;BME280;4807;48.024;11.726;2022-07-29T07:35:44;94898.66;;;30.60;50.82
9538;BME280;4807;48.024;11.726;2022-07-29T07:38:54;94900.06;;;28.90;52.94
9538;BME280;4807;48.024;11.726;2022-07-29T07:42:03;94900.19;;;27.87;55.30
9538;BME280;4807;48.024;11.726;2022-07-29T07:45:12;94903.63;;;28.34;53.30
9538;BME280;4807;48.024;11.726;2022-07-29T07:48:23;94904.16;;;28.64;50.00
9538;BME280;4807;48.024;11.726;2022-07-29T07:51:34;94899.44;;;30.33;47.47
9538;BME280;4807;48.024;11.726;2022-07-29T07:54:44;94904.59;;;28.40;50.33
9538;BME280;4807;48.024;11.726;2022-07-29T07:57:53;94892.75;;;29.18;51.63
9538;BME280;4807;48.024;11.726;2022-07-29T08:01:01;94900.47;;;26.33;52.86
9538;BME280;4807;48.024;11.726;2022-07-29T08:04:10;94902.28;;;27.45;53.45
9538;BME280;4807;48.024;11.726;2022-07-29T08:07:18;94906.31;;;28.25;50.61
9538;BME280;4807;48.024;11.726;2022-07-29T08:10:28;94899.00;;;29.18;51.10
9538;BME280;4807;48.024;11.726;2022-07-29T08:13:54;94898.00;;;29.92;48.72
9538;BME280;4807;48.024;11.726;2022-07-29T08:17:03;94901.97;;;28.59;47.43
9538;BME280;4807;48.024;11.726;2022-07-29T08:20:12;94899.25;;;27.17;52.64
9538;BME280;4807;48.024;11.726;2022-07-29T08:23:20;94908.22;;;27.90;51.21
9538;BME280;4807;48.024;11.726;2022-07-29T08:26:32;94908.47;;;28.30;49.36
9538;BME280;4807;48.024;11.726;2022-07-29T08:29:41;94912.97;;;29.51;50.09
9538;BME280;4807;48.024;11.726;2022-07-29T08:32:49;94908.09;;;27.21;52.09
9538;BME280;4807;48.024;11.726;2022-07-29T08:36:01;94914.47;;;26.03;55.99
9538;BME280;4807;48.024;11.726;2022-07-29T08:39:09;94917.97;;;25.87;57.49
9538;BME280;4807;48.024;11.726;2022-07-29T08:42:20;94910.22;;;27.52;56.46
9538;BME280;4807;48.024;11.726;2022-07-29T08:45:29;94908.94;;;29.03;52.37
9538;BME280;4807;48.024;11.726;2022-07-29T08:48:38;94901.94;;;29.73;49.43
9538;BME280;4807;48.024;11.726;2022-07-29T08:51:47;94899.59;;;27.92;52.27
9538;BME280;4807;48.024;11.726;2022-07-29T08:54:56;94901.63;;;26.03;54.39
9538;BME280;4807;48.024;11.726;2022-07-29T08:58:06;94904.47;;;25.83;56.53
9538;BME280;4807;48.024;11.726;2022-07-29T09:01:23;94908.31;;;25.70;55.80
9538;BME280;4807;48.024;11.726;2022-07-29T09:04:48;94911.25;;;26.08;58.15
9538;BME280;4807;48.024;11.726;2022-07-29T09:07:58;94910.34;;;26.98;56.98
9538;BME280;4807;48.024;11.726;2022-07-29T09:11:07;94918.16;;;26.83;54.25
9538;BME280;4807;48.024;11.726;2022-07-29T09:14:18;94919.94;;;26.32;57.24
9538;BME280;4807;48.024;11.726;2022-07-29T09:17:44;94921.69;;;27.47;57.28
9538;BME280;4807;48.024;11.726;2022-07-29T09:20:54;94915.63;;;27.55;54.95
9538;BME280;4807;48.024;11.726;2022-07-29T09:24:19;94916.56;;;26.28;56.40
9538;BME280;4807;48.024;11.726;2022-07-29T09:27:28;94908.69;;;26.46;57.01
9538;BME280;4807;48.024;11.726;2022-07-29T09:30:50;94912.22;;;27.64;55.41
9538;BME280;4807;48.024;11.726;2022-07-29T09:33:59;94909.16;;;28.43;54.95
9538;BME280;4807;48.024;11.726;2022-07-29T09:37:08;94909.47;;;28.89;53.09
9538;BME280;4807;48.024;11.726;2022-07-29T09:40:18;94910.75;;;28.54;52.98
9538;BME280;4807;48.024;11.726;2022-07-29T09:43:27;94901.69;;;27.88;55.32
9538;BME280;4807;48.024;11.726;2022-07-29T09:46:37;94906.59;;;27.93;55.58
9538;BME280;4807;48.024;11.726;2022-07-29T09:49:55;94899.75;;;29.19;52.40
9538;BME280;4807;48.024;11.726;2022-07-29T09:53:05;94894.16;;;28.92;52.47
9538;BME280;4807;48.024;11.726;2022-07-29T09:56:13;94894.72;;;28.65;53.99
9538;BME280;4807;48.024;11.726;2022-07-29T09:59:22;94891.38;;;28.04;52.88
9538;BME280;4807;48.024;11.726;2022-07-29T10:02:38;94892.22;;;28.48;53.48
9538;BME280;4807;48.024;11.726;2022-07-29T10:06:05;94891.56;;;28.66;53.62
9538;BME280;4807;48.024;11.726;2022-07-29T10:09:13;94888.81;;;28.88;55.15
9538;BME280;4807;48.024;11.726;2022-07-29T10:12:25;94896.66;;;28.77;54.43
9538;BME280;4807;48.024;11.726;2022-07-29T10:15:38;94899.19;;;28.49;55.48
9538;BME280;4807;48.024;11.726;2022-07-29T10:18:50;94897.72;;;28.79;52.87
9538;BME280;4807;48.024;11.726;2022-07-29T10:21:59;94889.53;;;29.10;54.02
9538;BME280;4807;48.024;11.726;2022-07-29T10:25:09;94887.00;;;28.41;54.80
9538;BME280;4807;48.024;11.726;2022-07-29T10:28:18;94890.63;;;28.38;54.91
9538;BME280;4807;48.024;11.726;2022-07-29T10:31:36;94897.69;;;28.14;56.17
9538;BME280;4807;48.024;11.726;2022-07-29T10:39:14;94888.97;;;27.47;56.74
9538;BME280;4807;48.024;11.726;2022-07-29T10:42:29;94885.22;;;26.77;56.67
9538;BME280;4807;48.024;11.726;2022-07-29T10:45:40;94892.97;;;26.79;58.29
9538;BME280;4807;48.024;11.726;2022-07-29T10:49:06;94895.28;;;26.39;59.30
9538;BME280;4807;48.024;11.726;2022-07-29T10:52:16;94901.06;;;26.25;59.63
9538;BME280;4807;48.024;11.726;2022-07-29T10:55:34;94896.94;;;26.04;58.85
9538;BME280;4807;48.024;11.726;2022-07-29T10:59:22;94901.59;;;26.19;60.42
9538;BME280;4807;48.024;11.726;2022-07-29T11:02:45;94893.97;;;26.14;60.92
9538;BME280;4807;48.024;11.726;2022-07-29T11:05:58;94900.72;;;26.39;60.01
9538;BME280;4807;48.024;11.726;2022-07-29T11:09:18;94904.81;;;26.59;59.77
9538;BME280;4807;48.024;11.726;2022-07-29T11:12:47;94898.69;;;26.55;58.81
9538;BME280;4807;48.024;11.726;2022-07-29T11:15:57;94901.66;;;26.61;60.43
9538;BME280;4807;48.024;11.726;2022-07-29T11:19:21;94899.09;;;26.54;60.21
9538;BME280;4807;48.024;11.726;2022-07-29T11:22:36;94895.84;;;27.01;63.05
9538;BME280;4807;48.024;11.726;2022-07-29T11:26:25;94895.19;;;27.22;56.39
9538;BME280;4807;48.024;11.726;2022-07-29T11:29:48;94881.84;;;26.73;53.98
9538;BME280;4807;48.024;11.726;2022-07-29T11:32:57;94894.50;;;26.80;55.68
9538;BME280;4807;48.024;11.726;2022-07-29T11:36:11;94890.88;;;26.70;57.84
9538;BME280;4807;48.024;11.726;2022-07-29T11:39:26;94883.47;;;26.29;54.82
9538;BME280;4807;48.024;11.726;2022-07-29T11:42:46;94878.63;;;26.20;54.17
9538;BME280;4807;48.024;11.726;2022-07-29T11:45:58;94875.53;;;26.35;55.67
9538;BME280;4807;48.024;11.726;2022-07-29T11:49:08;94875.56;;;27.14;54.74
9538;BME280;4807;48.024;11.726;2022-07-29T11:52:21;94866.81;;;28.17;53.57
9538;BME280;4807;48.024;11.726;2022-07-29T11:55:29;94856.16;;;27.50;52.68
9538;BME280;4807;48.024;11.726;2022-07-29T11:59:05;94863.94;;;28.64;54.67
9538;BME280;4807;48.024;11.726;2022-07-29T12:02:15;94853.47;;;29.34;53.05
9538;BME280;4807;48.024;11.726;2022-07-29T12:05:44;94850.13;;;30.15;49.21
9538;BME280;4807;48.024;11.726;2022-07-29T12:08:54;94854.50;;;28.87;49.50
9538;BME280;4807;48.024;11.726;2022-07-29T12:12:03;94853.84;;;28.52;49.58
9538;BME280;4807;48.024;11.726;2022-07-29T12:15:18;94834.66;;;27.40;53.02
9538;BME280;4807;48.024;11.726;2022-07-29T12:18:28;94843.75;;;27.11;53.06
9538;BME280;4807;48.024;11.726;2022-07-29T12:21:44;94844.78;;;27.64;53.33
9538;BME280;4807;48.024;11.726;2022-07-29T12:25:10;94841.34;;;27.26;52.88
9538;BME280;4807;48.024;11.726;2022-07-29T12:28:39;94841.97;;;27.43;52.91
9538;BME280;4807;48.024;11.726;2022-07-29T12:31:54;94835.47;;;27.74;53.44
9538;BME280;4807;48.024;11.726;2022-07-29T12:35:07;94837.50;;;27.49;51.15
9538;BME280;4807;48.024;11.726;2022-07-29T12:38:17;94839.78;;;27.63;54.10
9538;BME280;4807;48.024;11.726;2022-07-29T12:41:27;94834.19;;;28.01;51.32
9538;BME280;4807;48.024;11.726;2022-07-29T12:44:47;94827.16;;;28.87;51.81
9538;BME280;4807;48.024;11.726;2022-07-29T12:47:57;94827.06;;;29.40;49.98
9538;BME280;4807;48.024;11.726;2022-07-29T12:51:07;94814.31;;;29.37;49.04
9538;BME280;4807;48.024;11.726;2022-07-29T12:54:17;94819.56;;;27.73;50.56
9538;BME280;4807;48.024;11.726;2022-07-29T12:57:25;94818.31;;;27.40;54.14
9538;BME280;4807;48.024;11.726;2022-07-29T13:00:34;94824.50;;;27.53;53.14
9538;BME280;4807;48.024;11.726;2022-07-29T13:03:47;94833.03;;;27.55;51.17
9538;BME280;4807;48.024;11.726;2022-07-29T13:07:05;94827.63;;;27.98;49.17
9538;BME280;4807;48.024;11.726;2022-07-29T13:10:17;94829.09;;;27.56;46.95
9538;BME280;4807;48.024;11.726;2022-07-29T13:13:30;94833.06;;;27.77;49.53
9538;BME280;4807;48.024;11.726;2022-07-29T13:17:01;94835.25;;;28.38;48.44
9538;BME280;4807;48.024;11.726;2022-07-29T13:20:14;94830.09;;;28.18;48.72
9538;BME280;4807;48.024;11.726;2022-07-29T13:23:23;94836.78;;;28.04;49.21
9538;BME280;4807;48.024;11.726;2022-07-29T13:26:32;94831.19;;;27.86;48.78
9538;BME280;4807;48.024;11.726;2022-07-29T13:29:40;94836.41;;;27.46;51.08
9538;BME280;4807;48.024;11.726;2022-07-29T13:32:49;94837.97;;;27.09;52.22
9538;BME280;4807;48.024;11.726;2022-07-29T13:35:59;94831.09;;;26.92;52.87
9538;BME280;4807;48.024;11.726;2022-07-29T13:39:08;94827.94;;;26.93;53.99
9538;BME280;4807;48.024;11.726;2022-07-29T13:42:18;94825.97;;;27.07;52.92
9538;BME280;4807;48.024;11.726;2022-07-29T13:45:27;94823.56;;;27.34;53.06
9538;BME280;4807;48.024;11.726;2022-07-29T13:48:35;94821.47;;;27.51;53.36
9538;BME280;4807;48.024;11.726;2022-07-29T13:51:45;94821.69;;;27.56;54.29
9538;BME280;4807;48.024;11.726;2022-07-29T13:54:53;94817.09;;;27.53;51.45
9538;BME280;4807;48.024;11.726;2022-07-29T13:58:02;94809.41;;;27.73;52.67
9538;BME280;4807;48.024;11.726;2022-07-29T14:01:10;94810.38;;;28.01;53.41
9538;BME280;4807;48.024;11.726;2022-07-29T14:04:19;94812.53;;;28.06;53.16
9538;BME280;4807;48.024;11.726;2022-07-29T14:07:30;94808.56;;;28.20;52.50
9538;BME280;4807;48.024;11.726;2022-07-29T14:10:39;94801.94;;;27.40;52.13
9538;BME280;4807;48.024;11.726;2022-07-29T14:13:47;94805.97;;;27.48;52.15
9538;BME280;4807;48.024;11.726;2022-07-29T14:16:56;94803.31;;;27.69;51.60
9538;BME280;4807;48.024;11.726;2022-07-29T14:20:05;94806.81;;;27.70;52.78
9538;BME280;4807;48.024;11.726;2022-07-29T14:23:15;94798.94;;;27.72;53.81
9538;BME280;4807;48.024;11.726;2022-07-29T14:26:26;94799.78;;;27.82;52.54
9538;BME280;4807;48.024;11.726;2022-07-29T14:29:35;94801.53;;;28.32;54.05
9538;BME280;4807;48.024;11.726;2022-07-29T14:32:44;94794.00;;;28.45;51.62
9538;BME280;4807;48.024;11.726;2022-07-29T14:35:53;94793.69;;;27.78;50.83
9538;BME280;4807;48.024;11.726;2022-07-29T14:39:10;94799.13;;;27.30;52.98
9538;BME280;4807;48.024;11.726;2022-07-29T14:42:18;94788.91;;;26.58;52.78
9538;BME280;4807;48.024;11.726;2022-07-29T14:45:27;94790.13;;;26.16;53.28
9538;BME280;4807;48.024;11.726;2022-07-29T14:48:36;94793.78;;;26.38;53.72
9538;BME280;4807;48.024;11.726;2022-07-29T14:51:45;94807.91;;;27.13;53.66
9538;BME280;4807;48.024;11.726;2022-07-29T14:54:54;94812.75;;;27.43;53.40
9538;BME280;4807;48.024;11.726;2022-07-29T14:58:03;94813.41;;;27.22;53.03
9538;BME280;4807;48.024;11.726;2022-07-29T15:01:18;94815.56;;;27.40;53.66
9538;BME280;4807;48.024;11.726;2022-07-29T15:04:26;94810.47;;;26.78;55.70
9538;BME280;4807;48.024;11.726;2022-07-29T15:07:35;94807.88;;;26.75;55.62
9538;BME280;4807;48.024;11.726;2022-07-29T15:10:45;94807.91;;;27.13;56.26
9538;BME280;4807;48.024;11.726;2022-07-29T15:13:54;94805.03;;;27.29;55.27
9538;BME280;4807;48.024;11.726;2022-07-29T15:17:02;94801.13;;;27.17;55.08
9538;BME280;4807;48.024;11.726;2022-07-29T15:20:12;94801.56;;;27.16;55.59
9538;BME280;4807;48.024;11.726;2022-07-29T15:23:20;94797.28;;;26.51;57.36
9538;BME280;4807;48.024;11.726;2022-07-29T15:26:30;94798.44;;;26.25;57.96
9538;BME280;4807;48.024;11.726;2022-07-29T15:29:39;94802.41;;;26.08;59.65
9538;BME280;4807;48.024;11.726;2022-07-29T15:32:47;94799.44;;;26.31;58.38
9538;BME280;4807;48.024;11.726;2022-07-29T15:36:02;94805.34;;;26.13;59.72
9538;BME280;4807;48.024;11.726;2022-07-29T15:39:11;94810.25;;;26.18;60.79
9538;BME280;4807;48.024;11.726;2022-07-29T15:42:21;94820.50;;;26.14;59.84
9538;BME280;4807;48.024;11.726;2022-07-29T15:45:34;94823.69;;;26.26;58.55
9538;BME280;4807;48.024;11.726;2022-07-29T15:48:47;94831.84;;;26.26;58.95
9538;BME280;4807;48.024;11.726;2022-07-29T15:51:57;94836.44;;;26.00;59.57
9538;BME280;4807;48.024;11.726;2022-07-29T15:55:07;94842.72;;;25.97;61.19
9538;BME280;4807;48.024;11.726;2022-07-29T15:58:18;94847.44;;;25.80;62.41
9538;BME280;4807;48.024;11.726;2022-07-29T16:01:27;94839.16;;;25.71;62.85
9538;BME280;4807;48.024;11.726;2022-07-29T16:04:36;94842.63;;;25.39;62.05
9538;BME280;4807;48.024;11.726;2022-07-29T16:07:44;94842.28;;;25.37;62.22
9538;BME280;4807;48.024;11.726;2022-07-29T16:10:53;94841.09;;;25.22;64.13
9538;BME280;4807;48.024;11.726;2022-07-29T16:14:03;94836.34;;;25.10;63.94
9538;BME280;4807;48.024;11.726;2022-07-29T16:17:15;94838.63;;;24.95;66.34
9538;BME280;4807;48.024;11.726;2022-07-29T16:20:24;94840.16;;;24.76;65.46
9538;BME280;4807;48.024;11.726;2022-07-29T16:23:33;94841.91;;;24.66;65.23
9538;BME280;4807;48.024;11.726;2022-07-29T16:26:42;94838.44;;;24.50;66.56
9538;BME280;4807;48.024;11.726;2022-07-29T16:29:51;94852.19;;;24.39;68.41
9538;BME280;4807;48.024;11.726;2022-07-29T16:33:00;94854.56;;;24.37;68.04
9538;BME280;4807;48.024;11.726;2022-07-29T16:36:14;94861.41;;;24.25;68.81
9538;BME280;4807;48.024;11.726;2022-07-29T16:39:24;94870.41;;;24.19;69.19
9538;BME280;4807;48.024;11.726;2022-07-29T16:42:33;94863.44;;;23.98;70.76
9538;BME280;4807;48.024;11.726;2022-07-29T16:45:54;94868.28;;;23.87;72.51
9538;BME280;4807;48.024;11.726;2022-07-29T16:49:03;94866.78;;;23.63;74.16
9538;BME280;4807;48.024;11.726;2022-07-29T16:52:12;94868.59;;;23.69;75.29
9538;BME280;4807;48.024;11.726;2022-07-29T16:55:23;94878.91;;;23.78;74.83
9538;BME280;4807;48.024;11.726;2022-07-29T16:58:31;94888.16;;;23.57;76.97
9538;BME280;4807;48.024;11.726;2022-07-29T17:01:41;94887.56;;;23.69;77.03
9538;BME280;4807;48.024;11.726;2022-07-29T17:04:50;94899.13;;;23.73;77.05
9538;BME280;4807;48.024;11.726;2022-07-29T17:07:59;94906.34;;;23.60;77.80
9538;BME280;4807;48.024;11.726;2022-07-29T17:11:08;94915.28;;;23.57;79.21
9538;BME280;4807;48.024;11.726;2022-07-29T17:14:17;94915.47;;;23.43;79.19
9538;BME280;4807;48.024;11.726;2022-07-29T17:17:31;94915.63;;;23.59;79.63